sensor_id;sensor_type;location;lat;lon;timestamp;pressure;altitude;pressure_sealevel;temperature;humidity
40245;BME280;25963;42.694;23.600;2023-01-09T00:02:01;95548.84;;;-0.82;100.00
40245;BME280;25963;42.694;23.600;2023-01-09T00:04:26;95538.31;;;-0.81;100.00
40245;BME280;25963;42.694;23.600;2023-01-09T00:06:52;95541.88;;;-0.82;100.00
40245;BME280;25963;42.694;23.600;2023-01-09T00:09:21;95543.25;;;-0.78;100.00
40245;BME280;25963;42.694;23.600;2023-01-09T00:11:47;95544.19;;;-0.88;100.00
40245;BME280;25963;42.694;23.600;2023-01-09T00:14:17;95545.00;;;-0.88;100.00
40245;BME280;25963;42.694;23.600;2023-01-09T00:16:43;95531.94;;;-0.86;100.00
40245;BME280;25963;42.694;23.600;2023-01-09T00:19:09;95541.34;;;-0.95;100.00
40245;BME280;25963;42.694;23.600;2023-01-09T00:21:35;95539.44;;;-1.03;100.00
40245;BME280;25963;42.694;23.600;2023-01-09T00:24:01;95536.03;;;-1.03;100.00
40245;BME280;25963;42.694;23.600;2023-01-09T00:26:26;95535.34;;;-0.96;100.00
40245;BME280;25963;42.694;23.600;2023-01-09T00:28:53;95535.22;;;-0.94;100.00
40245;BME280;25963;42.694;23.600;2023-01-09T00:31:19;95524.59;;;-1.01;100.00
40245;BME280;25963;42.694;23.600;2023-01-09T00:34:02;95530.16;;;-1.05;100.00
40245;BME280;25963;42.694;23.600;2023-01-09T00:36:29;95527.19;;;-1.01;100.00
40245;BME280;25963;42.694;23.600;2023-01-09T00:38:54;95523.63;;;-1.09;100.00
40245;BME280;25963;42.694;23.600;2023-01-09T00:41:36;95528.53;;;-1.16;100.00
40245;BME280;25963;42.694;23.600;2023-01-09T00:44:18;95526.34;;;-1.21;100.00
40245;BME280;25963;42.694;23.600;2023-01-09T00:46:48;95522.53;;;-1.36;100.00
40245;BME280;25963;42.694;23.600;2023-01-09T00:49:15;95523.88;;;-1.42;100.00
40245;BME280;25963;42.694;23.600;2023-01-09T00:51:42;95525.25;;;-1.38;100.00
40245;BME280;25963;42.694;23.600;2023-01-09T00:54:09;95519.25;;;-1.38;100.00
40245;BME280;25963;42.694;23.600;2023-01-09T00:56:36;95520.47;;;-1.32;100.00
40245;BME280;25963;42.694;23.600;2023-01-09T00:59:02;95518.72;;;-1.22;100.00
40245;BME280;25963;42.694;23.600;2023-01-09T01:01:28;95520.22;;;-1.10;100.00
40245;BME280;25963;42.694;23.600;2023-01-09T01:03:54;95520.34;;;-1.02;100.00
40245;BME280;25963;42.694;23.600;2023-01-09T01:06:19;95518.72;;;-1.03;100.00
40245;BME280;25963;42.694;23.600;2023-01-09T01:09:04;95528.66;;;-1.18;100.00
40245;BME280;25963;42.694;23.600;2023-01-09T01:11:31;95519.28;;;-1.28;100.00
40245;BME280;25963;42.694;23.600;2023-01-09T01:13:58;95513.81;;;-1.25;100.00
40245;BME280;25963;42.694;23.600;2023-01-09T01:16:23;95511.75;;;-1.51;100.00
40245;BME280;25963;42.694;23.600;2023-01-09T01:18:49;95513.00;;;-1.35;100.00
40245;BME280;25963;42.694;23.600;2023-01-09T01:21:15;95511.38;;;-1.36;100.00
40245;BME280;25963;42.694;23.600;2023-01-09T01:23:41;95513.00;;;-1.35;100.00
40245;BME280;25963;42.694;23.600;2023-01-09T01:26:11;95506.47;;;-1.40;100.00
40245;BME280;25963;42.694;23.600;2023-01-09T01:28:37;95502.63;;;-1.35;100.00
40245;BME280;25963;42.694;23.600;2023-01-09T01:31:03;95500.47;;;-1.30;100.00
40245;BME280;25963;42.694;23.600;2023-01-09T01:33:29;95490.66;;;-1.36;100.00
40245;BME280;25963;42.694;23.600;2023-01-09T01:36:06;95487.66;;;-1.42;100.00
40245;BME280;25963;42.694;23.600;2023-01-09T01:38:32;95486.44;;;-1.38;100.00
40245;BME280;25963;42.694;23.600;2023-01-09T01:40:58;95484.38;;;-1.63;100.00
40245;BME280;25963;42.694;23.600;2023-01-09T01:43:24;95484.63;;;-1.66;100.00
40245;BME280;25963;42.694;23.600;2023-01-09T01:45:50;95482.31;;;-1.69;100.00
40245;BME280;25963;42.694;23.600;2023-01-09T01:48:20;95474.41;;;-1.77;100.00
40245;BME280;25963;42.694;23.600;2023-01-09T01:50:51;95470.63;;;-1.73;100.00
40245;BME280;25963;42.694;23.600;2023-01-09T01:53:28;95481.63;;;-1.71;100.00
40245;BME280;25963;42.694;23.600;2023-01-09T01:56:13;95471.28;;;-1.71;100.00
40245;BME280;25963;42.694;23.600;2023-01-09T01:58:48;95469.94;;;-1.66;100.00
40245;BME280;25963;42.694;23.600;2023-01-09T02:01:14;95467.50;;;-1.67;100.00
40245;BME280;25963;42.694;23.600;2023-01-09T02:03:41;95461.19;;;-1.74;100.00
40245;BME280;25963;42.694;23.600;2023-01-09T02:06:08;95450.84;;;-1.74;100.00
40245;BME280;25963;42.694;23.600;2023-01-09T02:08:33;95444.06;;;-1.75;100.00
40245;BME280;25963;42.694;23.600;2023-01-09T02:11:00;95453.16;;;-1.81;100.00
40245;BME280;25963;42.694;23.600;2023-01-09T02:13:26;95455.75;;;-1.71;100.00
40245;BME280;25963;42.694;23.600;2023-01-09T02:26:56;95433.97;;;-1.78;100.00
40245;BME280;25963;42.694;23.600;2023-01-09T02:35:29;95430.00;;;-2.02;100.00
40245;BME280;25963;42.694;23.600;2023-01-09T02:40:43;95428.66;;;-1.87;100.00
40245;BME280;25963;42.694;23.600;2023-01-09T02:43:11;95429.09;;;-1.81;100.00
40245;BME280;25963;42.694;23.600;2023-01-09T02:45:37;95422.03;;;-1.79;100.00
40245;BME280;25963;42.694;23.600;2023-01-09T02:48:03;95427.44;;;-1.83;100.00
40245;BME280;25963;42.694;23.600;2023-01-09T02:50:35;95431.94;;;-1.85;100.00
40245;BME280;25963;42.694;23.600;2023-01-09T02:58:36;95435.75;;;-1.69;100.00
40245;BME280;25963;42.694;23.600;2023-01-09T03:07:05;95440.66;;;-1.66;100.00
40245;BME280;25963;42.694;23.600;2023-01-09T03:09:36;95432.22;;;-1.68;100.00
40245;BME280;25963;42.694;23.600;2023-01-09T03:12:09;95428.81;;;-1.69;100.00
40245;BME280;25963;42.694;23.600;2023-01-09T03:14:39;95430.97;;;-1.74;100.00
40245;BME280;25963;42.694;23.600;2023-01-09T03:17:10;95439.97;;;-1.68;100.00
40245;BME280;25963;42.694;23.600;2023-01-09T03:19:38;95433.03;;;-1.77;100.00
40245;BME280;25963;42.694;23.600;2023-01-09T03:22:06;95417.38;;;-1.76;100.00
40245;BME280;25963;42.694;23.600;2023-01-09T03:24:32;95427.31;;;-1.71;100.00
40245;BME280;25963;42.694;23.600;2023-01-09T03:26:57;95404.03;;;-1.62;100.00
40245;BME280;25963;42.694;23.600;2023-01-09T03:29:23;95424.72;;;-1.42;100.00
40245;BME280;25963;42.694;23.600;2023-01-09T03:31:48;95417.38;;;-1.37;100.00
40245;BME280;25963;42.694;23.600;2023-01-09T03:34:13;95436.19;;;-1.25;100.00
40245;BME280;25963;42.694;23.600;2023-01-09T03:36:39;95434.53;;;-1.17;100.00
40245;BME280;25963;42.694;23.600;2023-01-09T03:39:04;95435.06;;;-1.23;100.00
40245;BME280;25963;42.694;23.600;2023-01-09T03:41:30;95423.50;;;-1.19;100.00
40245;BME280;25963;42.694;23.600;2023-01-09T03:43:55;95430.00;;;-1.15;100.00
40245;BME280;25963;42.694;23.600;2023-01-09T03:46:20;95420.88;;;-1.09;100.00
40245;BME280;25963;42.694;23.600;2023-01-09T03:48:46;95421.41;;;-1.05;100.00
40245;BME280;25963;42.694;23.600;2023-01-09T03:51:11;95419.34;;;-1.02;100.00
40245;BME280;25963;42.694;23.600;2023-01-09T03:53:38;95425.75;;;-0.96;100.00
40245;BME280;25963;42.694;23.600;2023-01-09T03:56:03;95421.22;;;-0.84;100.00
40245;BME280;25963;42.694;23.600;2023-01-09T03:58:29;95418.88;;;-0.68;100.00
40245;BME280;25963;42.694;23.600;2023-01-09T04:00:59;95433.84;;;-0.62;100.00
40245;BME280;25963;42.694;23.600;2023-01-09T04:03:25;95428.09;;;-0.56;100.00
40245;BME280;25963;42.694;23.600;2023-01-09T04:05:50;95429.47;;;-0.61;100.00
40245;BME280;25963;42.694;23.600;2023-01-09T04:08:16;95426.03;;;-0.52;100.00
40245;BME280;25963;42.694;23.600;2023-01-09T04:10:47;95419.47;;;-0.47;100.00
40245;BME280;25963;42.694;23.600;2023-01-09T04:13:13;95427.25;;;-0.47;100.00
40245;BME280;25963;42.694;23.600;2023-01-09T04:15:38;95425.84;;;-0.41;100.00
40245;BME280;25963;42.694;23.600;2023-01-09T04:18:04;95425.84;;;-0.41;100.00
40245;BME280;25963;42.694;23.600;2023-01-09T04:20:30;95425.41;;;-0.36;100.00
40245;BME280;25963;42.694;23.600;2023-01-09T04:22:55;95428.09;;;-0.28;100.00
40245;BME280;25963;42.694;23.600;2023-01-09T04:25:20;95429.66;;;-0.35;100.00
40245;BME280;25963;42.694;23.600;2023-01-09T04:27:47;95426.78;;;-0.42;100.00
40245;BME280;25963;42.694;23.600;2023-01-09T04:30:13;95419.88;;;-0.41;100.00
40245;BME280;25963;42.694;23.600;2023-01-09T04:32:38;95425.56;;;-0.38;100.00
40245;BME280;25963;42.694;23.600;2023-01-09T04:35:04;95414.13;;;-0.45;100.00
40245;BME280;25963;42.694;23.600;2023-01-09T04:37:30;95411.94;;;-0.40;100.00
40245;BME280;25963;42.694;23.600;2023-01-09T04:39:55;95410.81;;;-0.37;100.00
40245;BME280;25963;42.694;23.600;2023-01-09T04:42:21;95418.50;;;-0.46;100.00
40245;BME280;25963;42.694;23.600;2023-01-09T04:44:47;95419.56;;;-0.38;100.00
40245;BME280;25963;42.694;23.600;2023-01-09T04:47:12;95416.13;;;-0.29;100.00
40245;BME280;25963;42.694;23.600;2023-01-09T04:49:38;95415.31;;;-0.30;100.00
40245;BME280;25963;42.694;23.600;2023-01-09T04:52:04;95409.38;;;-0.22;100.00
40245;BME280;25963;42.694;23.600;2023-01-09T04:54:29;95407.75;;;-0.23;100.00
40245;BME280;25963;42.694;23.600;2023-01-09T04:56:55;95411.56;;;-0.17;100.00
40245;BME280;25963;42.694;23.600;2023-01-09T04:59:20;95404.00;;;-0.11;100.00
40245;BME280;25963;42.694;23.600;2023-01-09T05:01:45;95407.31;;;-0.18;100.00
40245;BME280;25963;42.694;23.600;2023-01-09T05:04:11;95406.44;;;-0.09;100.00
40245;BME280;25963;42.694;23.600;2023-01-09T05:06:38;95406.38;;;-0.17;100.00
40245;BME280;25963;42.694;23.600;2023-01-09T05:09:03;95399.78;;;-0.12;100.00
40245;BME280;25963;42.694;23.600;2023-01-09T05:11:29;95404.97;;;-0.12;100.00
40245;BME280;25963;42.694;23.600;2023-01-09T05:13:54;95397.84;;;-0.10;100.00
40245;BME280;25963;42.694;23.600;2023-01-09T05:16:20;95393.19;;;-0.06;100.00
40245;BME280;25963;42.694;23.600;2023-01-09T05:18:46;95410.03;;;0.08;100.00
40245;BME280;25963;42.694;23.600;2023-01-09T05:21:12;95399.84;;;-0.04;100.00
40245;BME280;25963;42.694;23.600;2023-01-09T05:23:37;95407.28;;;-0.09;100.00
40245;BME280;25963;42.694;23.600;2023-01-09T05:26:03;95398.97;;;0.06;100.00
40245;BME280;25963;42.694;23.600;2023-01-09T05:28:29;95397.75;;;0.10;100.00
40245;BME280;25963;42.694;23.600;2023-01-09T05:30:55;95398.03;;;0.07;100.00
40245;BME280;25963;42.694;23.600;2023-01-09T05:33:20;95395.56;;;0.05;100.00
40245;BME280;25963;42.694;23.600;2023-01-09T05:35:46;95400.16;;;0.11;100.00
40245;BME280;25963;42.694;23.600;2023-01-09T05:38:12;95402.78;;;0.29;100.00
40245;BME280;25963;42.694;23.600;2023-01-09T05:40:37;95398.84;;;0.25;100.00
40245;BME280;25963;42.694;23.600;2023-01-09T05:43:02;95395.00;;;0.29;100.00
40245;BME280;25963;42.694;23.600;2023-01-09T05:45:28;95401.06;;;0.38;100.00
40245;BME280;25963;42.694;23.600;2023-01-09T05:47:53;95397.38;;;0.40;100.00
40245;BME280;25963;42.694;23.600;2023-01-09T05:50:18;95402.25;;;0.43;100.00
40245;BME280;25963;42.694;23.600;2023-01-09T05:52:44;95399.66;;;0.43;100.00
40245;BME280;25963;42.694;23.600;2023-01-09T05:55:11;95395.75;;;0.39;100.00
40245;BME280;25963;42.694;23.600;2023-01-09T05:57:36;95392.03;;;0.42;100.00
40245;BME280;25963;42.694;23.600;2023-01-09T06:00:02;95380.22;;;0.48;100.00
40245;BME280;25963;42.694;23.600;2023-01-09T06:02:28;95386.25;;;0.66;100.00
40245;BME280;25963;42.694;23.600;2023-01-09T06:04:54;95397.03;;;0.79;100.00
40245;BME280;25963;42.694;23.600;2023-01-09T06:07:19;95382.34;;;0.88;100.00
40245;BME280;25963;42.694;23.600;2023-01-09T06:09:44;95388.59;;;1.03;100.00
40245;BME280;25963;42.694;23.600;2023-01-09T06:12:10;95384.88;;;1.06;100.00
40245;BME280;25963;42.694;23.600;2023-01-09T06:14:35;95384.63;;;1.17;100.00
40245;BME280;25963;42.694;23.600;2023-01-09T06:17:01;95380.38;;;1.16;100.00
40245;BME280;25963;42.694;23.600;2023-01-09T06:19:27;95379.88;;;1.12;100.00
40245;BME280;25963;42.694;23.600;2023-01-09T06:21:52;95386.31;;;1.26;100.00
40245;BME280;25963;42.694;23.600;2023-01-09T06:24:18;95380.81;;;1.29;100.00
40245;BME280;25963;42.694;23.600;2023-01-09T06:26:43;95381.00;;;1.36;100.00
40245;BME280;25963;42.694;23.600;2023-01-09T06:29:09;95377.97;;;1.49;100.00
40245;BME280;25963;42.694;23.600;2023-01-09T06:31:34;95384.31;;;1.54;100.00
40245;BME280;25963;42.694;23.600;2023-01-09T06:33:59;95383.56;;;1.62;100.00
40245;BME280;25963;42.694;23.600;2023-01-09T06:36:25;95383.69;;;1.60;100.00
40245;BME280;25963;42.694;23.600;2023-01-09T06:38:50;95384.19;;;1.64;100.00
40245;BME280;25963;42.694;23.600;2023-01-09T06:41:16;95393.97;;;1.70;100.00
40245;BME280;25963;42.694;23.600;2023-01-09T06:43:42;95387.72;;;1.89;100.00
40245;BME280;25963;42.694;23.600;2023-01-09T06:46:07;95382.63;;;1.79;100.00
40245;BME280;25963;42.694;23.600;2023-01-09T06:48:32;95377.94;;;1.83;100.00
40245;BME280;25963;42.694;23.600;2023-01-09T06:50:58;95383.47;;;1.80;100.00
40245;BME280;25963;42.694;23.600;2023-01-09T06:53:24;95377.63;;;1.86;100.00
40245;BME280;25963;42.694;23.600;2023-01-09T06:55:49;95377.00;;;1.92;100.00
40245;BME280;25963;42.694;23.600;2023-01-09T06:58:15;95377.19;;;2.07;100.00
40245;BME280;25963;42.694;23.600;2023-01-09T07:00:41;95369.69;;;2.12;100.00
40245;BME280;25963;42.694;23.600;2023-01-09T07:03:06;95375.56;;;2.14;100.00
40245;BME280;25963;42.694;23.600;2023-01-09T07:05:37;95372.19;;;2.22;100.00
40245;BME280;25963;42.694;23.600;2023-01-09T07:08:03;95371.22;;;2.31;100.00
40245;BME280;25963;42.694;23.600;2023-01-09T07:10:29;95364.88;;;2.34;100.00
40245;BME280;25963;42.694;23.600;2023-01-09T07:12:54;95362.09;;;2.43;100.00
40245;BME280;25963;42.694;23.600;2023-01-09T07:15:20;95357.72;;;2.52;100.00
40245;BME280;25963;42.694;23.600;2023-01-09T07:17:45;95363.56;;;2.62;100.00
40245;BME280;25963;42.694;23.600;2023-01-09T07:20:11;95361.63;;;2.64;100.00
40245;BME280;25963;42.694;23.600;2023-01-09T07:22:36;95364.56;;;2.69;100.00
40245;BME280;25963;42.694;23.600;2023-01-09T07:25:02;95372.19;;;2.71;100.00
40245;BME280;25963;42.694;23.600;2023-01-09T07:27:27;95369.91;;;2.92;100.00
40245;BME280;25963;42.694;23.600;2023-01-09T07:29:53;95367.75;;;3.04;100.00
40245;BME280;25963;42.694;23.600;2023-01-09T07:32:18;95369.25;;;2.98;100.00
40245;BME280;25963;42.694;23.600;2023-01-09T07:34:44;95380.16;;;3.02;100.00
40245;BME280;25963;42.694;23.600;2023-01-09T07:37:09;95383.06;;;3.07;100.00
40245;BME280;25963;42.694;23.600;2023-01-09T07:39:34;95381.41;;;3.23;100.00
40245;BME280;25963;42.694;23.600;2023-01-09T07:42:00;95381.75;;;3.19;100.00
40245;BME280;25963;42.694;23.600;2023-01-09T07:44:25;95375.19;;;3.32;100.00
40245;BME280;25963;42.694;23.600;2023-01-09T07:46:51;95372.63;;;3.15;100.00
40245;BME280;25963;42.694;23.600;2023-01-09T07:49:16;95381.59;;;3.21;100.00
40245;BME280;25963;42.694;23.600;2023-01-09T07:51:41;95367.88;;;3.27;100.00
40245;BME280;25963;42.694;23.600;2023-01-09T07:54:09;95361.88;;;3.27;100.00
40245;BME280;25963;42.694;23.600;2023-01-09T07:56:35;95374.19;;;3.41;100.00
40245;BME280;25963;42.694;23.600;2023-01-09T07:59:00;95382.34;;;3.46;100.00
40245;BME280;25963;42.694;23.600;2023-01-09T08:01:26;95385.53;;;3.64;100.00
40245;BME280;25963;42.694;23.600;2023-01-09T08:03:51;95370.50;;;3.75;100.00
40245;BME280;25963;42.694;23.600;2023-01-09T08:06:17;95385.47;;;3.89;100.00
40245;BME280;25963;42.694;23.600;2023-01-09T08:08:42;95383.31;;;3.93;100.00
40245;BME280;25963;42.694;23.600;2023-01-09T08:11:07;95384.28;;;3.92;100.00
40245;BME280;25963;42.694;23.600;2023-01-09T08:13:33;95396.78;;;4.04;100.00
40245;BME280;25963;42.694;23.600;2023-01-09T08:15:59;95393.44;;;4.19;100.00
40245;BME280;25963;42.694;23.600;2023-01-09T08:18:24;95401.56;;;4.24;100.00
40245;BME280;25963;42.694;23.600;2023-01-09T08:20:50;95398.00;;;4.25;100.00
40245;BME280;25963;42.694;23.600;2023-01-09T08:23:15;95403.22;;;4.25;100.00
40245;BME280;25963;42.694;23.600;2023-01-09T08:25:41;95399.50;;;4.19;100.00
40245;BME280;25963;42.694;23.600;2023-01-09T08:28:06;95406.16;;;4.22;100.00
40245;BME280;25963;42.694;23.600;2023-01-09T08:30:33;95400.25;;;4.28;100.00
40245;BME280;25963;42.694;23.600;2023-01-09T08:32:59;95394.97;;;4.36;100.00
40245;BME280;25963;42.694;23.600;2023-01-09T08:35:24;95401.16;;;4.43;100.00
40245;BME280;25963;42.694;23.600;2023-01-09T08:37:49;95385.97;;;4.39;100.00
40245;BME280;25963;42.694;23.600;2023-01-09T08:40:16;95389.53;;;4.46;100.00
40245;BME280;25963;42.694;23.600;2023-01-09T08:42:41;95392.25;;;4.52;100.00
40245;BME280;25963;42.694;23.600;2023-01-09T08:45:25;95396.44;;;4.85;100.00
40245;BME280;25963;42.694;23.600;2023-01-09T08:48:10;95389.72;;;5.05;100.00
40245;BME280;25963;42.694;23.600;2023-01-09T08:50:35;95382.09;;;5.18;100.00
40245;BME280;25963;42.694;23.600;2023-01-09T08:53:01;95384.53;;;5.35;100.00
40245;BME280;25963;42.694;23.600;2023-01-09T08:55:26;95390.56;;;5.35;100.00
40245;BME280;25963;42.694;23.600;2023-01-09T08:57:53;95380.31;;;5.48;100.00
40245;BME280;25963;42.694;23.600;2023-01-09T09:00:21;95376.78;;;5.71;100.00
40245;BME280;25963;42.694;23.600;2023-01-09T09:02:51;95377.94;;;5.83;100.00
40245;BME280;25963;42.694;23.600;2023-01-09T09:05:17;95370.56;;;5.42;100.00
40245;BME280;25963;42.694;23.600;2023-01-09T09:07:43;95368.09;;;5.70;100.00
40245;BME280;25963;42.694;23.600;2023-01-09T09:10:09;95358.44;;;6.01;100.00
40245;BME280;25963;42.694;23.600;2023-01-09T09:12:34;95351.59;;;6.00;100.00
40245;BME280;25963;42.694;23.600;2023-01-09T09:15:00;95351.31;;;5.80;100.00
40245;BME280;25963;42.694;23.600;2023-01-09T09:17:38;95355.72;;;6.09;100.00
40245;BME280;25963;42.694;23.600;2023-01-09T09:20:08;95356.47;;;6.03;100.00
40245;BME280;25963;42.694;23.600;2023-01-09T09:22:34;95348.63;;;6.24;100.00
40245;BME280;25963;42.694;23.600;2023-01-09T09:25:00;95340.22;;;6.50;100.00
40245;BME280;25963;42.694;23.600;2023-01-09T09:27:25;95336.22;;;6.54;100.00
40245;BME280;25963;42.694;23.600;2023-01-09T09:29:51;95342.78;;;6.44;100.00
40245;BME280;25963;42.694;23.600;2023-01-09T09:32:16;95344.16;;;6.39;100.00
40245;BME280;25963;42.694;23.600;2023-01-09T09:34:41;95332.09;;;6.45;100.00
40245;BME280;25963;42.694;23.600;2023-01-09T09:37:07;95329.47;;;6.24;100.00
40245;BME280;25963;42.694;23.600;2023-01-09T09:39:32;95311.84;;;6.32;100.00
40245;BME280;25963;42.694;23.600;2023-01-09T09:53:47;95281.97;;;7.04;100.00
40245;BME280;25963;42.694;23.600;2023-01-09T09:56:16;95271.84;;;7.01;100.00
40245;BME280;25963;42.694;23.600;2023-01-09T09:58:45;95274.75;;;7.13;100.00
40245;BME280;25963;42.694;23.600;2023-01-09T10:01:17;95260.06;;;7.19;100.00
40245;BME280;25963;42.694;23.600;2023-01-09T10:03:53;95246.97;;;7.25;100.00
40245;BME280;25963;42.694;23.600;2023-01-09T10:06:33;95252.25;;;7.39;100.00
40245;BME280;25963;42.694;23.600;2023-01-09T10:10:08;95229.91;;;7.08;100.00
40245;BME280;25963;42.694;23.600;2023-01-09T10:12:33;95223.59;;;7.30;100.00
40245;BME280;25963;42.694;23.600;2023-01-09T10:15:17;95213.53;;;7.41;100.00
40245;BME280;25963;42.694;23.600;2023-01-09T10:17:51;95205.59;;;7.27;100.00
40245;BME280;25963;42.694;23.600;2023-01-09T10:39:36;95155.50;;;7.97;100.00
40245;BME280;25963;42.694;23.600;2023-01-09T10:42:24;95158.75;;;8.39;100.00
40245;BME280;25963;42.694;23.600;2023-01-09T10:47:39;95145.41;;;8.20;100.00
40245;BME280;25963;42.694;23.600;2023-01-09T10:50:32;95138.31;;;8.21;100.00
40245;BME280;25963;42.694;23.600;2023-01-09T10:52:59;95143.34;;;8.22;100.00
40245;BME280;25963;42.694;23.600;2023-01-09T10:55:36;95141.38;;;8.11;100.00
40245;BME280;25963;42.694;23.600;2023-01-09T10:58:11;95122.97;;;7.91;100.00
40245;BME280;25963;42.694;23.600;2023-01-09T11:00:37;95123.97;;;7.97;100.00
40245;BME280;25963;42.694;23.600;2023-01-09T11:03:03;95117.50;;;7.99;100.00
40245;BME280;25963;42.694;23.600;2023-01-09T11:05:29;95130.84;;;7.78;100.00
40245;BME280;25963;42.694;23.600;2023-01-09T11:10:54;95112.66;;;7.96;100.00
40245;BME280;25963;42.694;23.600;2023-01-09T11:16:02;95104.38;;;8.26;100.00
40245;BME280;25963;42.694;23.600;2023-01-09T11:18:30;95098.53;;;8.11;100.00
40245;BME280;25963;42.694;23.600;2023-01-09T11:21:11;95106.97;;;8.19;100.00
40245;BME280;25963;42.694;23.600;2023-01-09T11:23:37;95097.31;;;8.00;100.00
40245;BME280;25963;42.694;23.600;2023-01-09T11:26:03;95093.03;;;7.59;100.00
40245;BME280;25963;42.694;23.600;2023-01-09T11:28:28;95090.63;;;7.58;100.00
40245;BME280;25963;42.694;23.600;2023-01-09T11:30:55;95099.88;;;7.47;100.00
40245;BME280;25963;42.694;23.600;2023-01-09T11:33:36;95088.56;;;7.46;100.00
40245;BME280;25963;42.694;23.600;2023-01-09T11:36:13;95087.59;;;7.67;100.00
40245;BME280;25963;42.694;23.600;2023-01-09T11:38:51;95082.16;;;7.69;100.00
40245;BME280;25963;42.694;23.600;2023-01-09T11:41:20;95066.16;;;7.44;100.00
40245;BME280;25963;42.694;23.600;2023-01-09T11:43:49;95075.50;;;7.66;100.00
40245;BME280;25963;42.694;23.600;2023-01-09T11:46:37;95079.50;;;7.62;100.00
40245;BME280;25963;42.694;23.600;2023-01-09T11:49:25;95077.50;;;7.64;100.00
40245;BME280;25963;42.694;23.600;2023-01-09T11:54:40;95079.50;;;7.55;100.00
40245;BME280;25963;42.694;23.600;2023-01-09T11:57:10;95074.88;;;7.64;100.00
40245;BME280;25963;42.694;23.600;2023-01-09T11:59:36;95068.59;;;7.52;100.00
40245;BME280;25963;42.694;23.600;2023-01-09T12:05:04;95059.25;;;7.23;100.00
40245;BME280;25963;42.694;23.600;2023-01-09T12:21:52;95047.72;;;6.97;100.00
40245;BME280;25963;42.694;23.600;2023-01-09T12:35:44;95030.56;;;7.01;100.00
40245;BME280;25963;42.694;23.600;2023-01-09T12:38:32;95030.72;;;6.80;100.00
40245;BME280;25963;42.694;23.600;2023-01-09T12:41:16;95027.19;;;6.59;100.00
40245;BME280;25963;42.694;23.600;2023-01-09T12:46:55;95028.13;;;6.45;100.00
40245;BME280;25963;42.694;23.600;2023-01-09T12:49:32;95024.88;;;6.43;100.00
40245;BME280;25963;42.694;23.600;2023-01-09T12:52:09;95021.06;;;6.46;100.00
40245;BME280;25963;42.694;23.600;2023-01-09T12:54:41;95028.81;;;6.60;100.00
40245;BME280;25963;42.694;23.600;2023-01-09T12:59:46;95018.03;;;6.35;100.00
40245;BME280;25963;42.694;23.600;2023-01-09T13:02:34;95010.47;;;6.19;100.00
40245;BME280;25963;42.694;23.600;2023-01-09T13:05:24;95011.09;;;6.21;100.00
40245;BME280;25963;42.694;23.600;2023-01-09T13:07:55;95001.53;;;6.07;100.00
40245;BME280;25963;42.694;23.600;2023-01-09T13:10:56;95013.69;;;5.86;100.00
40245;BME280;25963;42.694;23.600;2023-01-09T13:13:32;95003.00;;;5.88;100.00
40245;BME280;25963;42.694;23.600;2023-01-09T13:16:11;95001.72;;;5.77;100.00
40245;BME280;25963;42.694;23.600;2023-01-09T13:18:44;95007.59;;;5.79;100.00
40245;BME280;25963;42.694;23.600;2023-01-09T13:21:12;94994.84;;;5.69;100.00
40245;BME280;25963;42.694;23.600;2023-01-09T13:26:28;95006.34;;;5.47;100.00
40245;BME280;25963;42.694;23.600;2023-01-09T13:29:05;95005.41;;;5.55;100.00
40245;BME280;25963;42.694;23.600;2023-01-09T13:34:04;95003.66;;;5.40;100.00
40245;BME280;25963;42.694;23.600;2023-01-09T13:36:37;94995.06;;;5.46;100.00
40245;BME280;25963;42.694;23.600;2023-01-09T13:39:03;94992.41;;;5.40;100.00
40245;BME280;25963;42.694;23.600;2023-01-09T13:41:30;95001.09;;;5.47;100.00
40245;BME280;25963;42.694;23.600;2023-01-09T13:44:21;94984.59;;;5.46;100.00
40245;BME280;25963;42.694;23.600;2023-01-09T13:46:50;95003.00;;;5.32;100.00
40245;BME280;25963;42.694;23.600;2023-01-09T13:59:44;94997.16;;;5.08;100.00
40245;BME280;25963;42.694;23.600;2023-01-09T14:05:02;94984.22;;;5.00;100.00
40245;BME280;25963;42.694;23.600;2023-01-09T14:07:51;94992.13;;;4.85;100.00
40245;BME280;25963;42.694;23.600;2023-01-09T14:10:24;94989.63;;;4.77;100.00
40245;BME280;25963;42.694;23.600;2023-01-09T14:12:52;94984.50;;;4.69;100.00
40245;BME280;25963;42.694;23.600;2023-01-09T14:15:38;94987.03;;;4.62;100.00
40245;BME280;25963;42.694;23.600;2023-01-09T14:18:06;94981.38;;;4.58;100.00
40245;BME280;25963;42.694;23.600;2023-01-09T14:20:42;94972.69;;;4.37;100.00
40245;BME280;25963;42.694;23.600;2023-01-09T14:23:20;94981.81;;;4.26;100.00
40245;BME280;25963;42.694;23.600;2023-01-09T14:25:47;94982.09;;;4.31;100.00
40245;BME280;25963;42.694;23.600;2023-01-09T14:28:25;94972.69;;;4.37;100.00
40245;BME280;25963;42.694;23.600;2023-01-09T14:38:40;94975.44;;;3.84;100.00
40245;BME280;25963;42.694;23.600;2023-01-09T14:44:27;94968.59;;;3.53;100.00
40245;BME280;25963;42.694;23.600;2023-01-09T14:46:55;94977.41;;;3.67;100.00
40245;BME280;25963;42.694;23.600;2023-01-09T14:49:36;94965.22;;;3.30;100.00
40245;BME280;25963;42.694;23.600;2023-01-09T14:52:19;94964.53;;;3.36;100.00
40245;BME280;25963;42.694;23.600;2023-01-09T14:54:47;94967.75;;;3.38;100.00
40245;BME280;25963;42.694;23.600;2023-01-09T14:57:30;94971.56;;;3.12;100.00
40245;BME280;25963;42.694;23.600;2023-01-09T15:02:39;94972.22;;;3.14;100.00
40245;BME280;25963;42.694;23.600;2023-01-09T15:05:17;94968.50;;;3.09;100.00
40245;BME280;25963;42.694;23.600;2023-01-09T15:07:55;94970.38;;;3.00;100.00
40245;BME280;25963;42.694;23.600;2023-01-09T15:10:31;94968.88;;;3.06;100.00
40245;BME280;25963;42.694;23.600;2023-01-09T15:13:00;94951.88;;;2.87;100.00
40245;BME280;25963;42.694;23.600;2023-01-09T15:15:27;94953.59;;;2.80;100.00